createdAt,value
2022-11-24T00:01:33.143Z,7.00
2022-11-24T00:03:34.940Z,7.05
2022-11-24T00:05:38.384Z,7.10
2022-11-24T00:07:39.845Z,7.08
2022-11-24T00:09:41.348Z,7.14
2022-11-24T00:11:42.796Z,7.19
2022-11-24T00:13:44.760Z,7.19
2022-11-24T00:15:46.180Z,7.22
2022-11-24T00:17:47.696Z,7.25
2022-11-24T00:19:49.117Z,7.25
2022-11-24T00:21:50.549Z,7.27
2022-11-24T00:23:52.359Z,7.29
2022-11-24T00:25:53.814Z,7.24
2022-11-24T00:27:55.199Z,7.23
2022-11-24T00:29:57.601Z,7.17
2022-11-24T00:31:59.127Z,7.17
2022-11-24T00:34:03.684Z,7.12
2022-11-24T00:36:05.444Z,7.10
2022-11-24T00:38:06.879Z,7.08
2022-11-24T00:40:08.747Z,7.04
2022-11-24T00:42:10.209Z,7.05
2022-11-24T00:44:11.656Z,7.03
2022-11-24T00:46:13.477Z,6.98
2022-11-24T00:48:15.376Z,6.97
2022-11-24T00:50:16.869Z,6.96
2022-11-24T00:52:18.275Z,6.99
2022-11-24T00:54:19.757Z,7.02
2022-11-24T00:56:21.248Z,7.02
2022-11-24T00:58:23.982Z,7.00
2022-11-24T01:00:26.363Z,6.97
2022-11-24T01:02:27.816Z,6.91
2022-11-24T01:04:29.212Z,6.93
2022-11-24T01:06:32.312Z,6.90
2022-11-24T01:08:34.363Z,6.97
2022-11-24T01:10:36.058Z,6.93
2022-11-24T01:12:37.556Z,6.91
2022-11-24T01:14:39.208Z,6.85
2022-11-24T01:16:40.621Z,6.82
2022-11-24T01:18:42.382Z,6.78
2022-11-24T01:20:43.804Z,6.74
2022-11-24T01:22:48.339Z,6.67
2022-11-24T01:24:49.771Z,6.70
2022-11-24T01:26:51.437Z,6.57
2022-11-24T01:28:55.000Z,6.55
2022-11-24T01:30:58.128Z,6.58
2022-11-24T01:32:59.627Z,6.60
2022-11-24T01:35:01.046Z,6.52
2022-11-24T01:37:02.463Z,6.52
2022-11-24T01:39:03.995Z,6.52
2022-11-24T01:41:14.159Z,6.56
2022-11-24T01:43:21.253Z,6.64
2022-11-24T01:45:41.945Z,6.59
2022-11-24T01:47:43.501Z,6.58
2022-11-24T01:49:48.686Z,6.60
2022-11-24T01:52:13.066Z,6.63
2022-11-24T01:54:20.181Z,6.60
2022-11-24T01:56:21.700Z,6.57
2022-11-24T01:58:27.648Z,6.57
2022-11-24T02:00:29.191Z,6.45
2022-11-24T02:02:30.817Z,6.47
2022-11-24T02:04:34.496Z,6.43
2022-11-24T02:06:38.591Z,6.38
2022-11-24T02:08:57.221Z,6.41
2022-11-24T02:11:00.829Z,6.43
2022-11-24T02:13:03.380Z,6.39
2022-11-24T02:15:05.328Z,6.40
2022-11-24T02:17:06.888Z,6.41
2022-11-24T02:19:22.055Z,6.44
2022-11-24T02:21:23.732Z,6.55
2022-11-24T02:23:39.639Z,6.59
2022-11-24T02:25:47.076Z,6.65
2022-11-24T02:27:53.653Z,6.65
2022-11-24T02:29:55.629Z,6.70
2022-11-24T02:32:01.257Z,6.72
2022-11-24T02:34:02.753Z,6.86
2022-11-24T02:36:04.286Z,6.96
2022-11-24T02:38:06.070Z,7.05
2022-11-24T02:40:09.934Z,7.06
2022-11-24T02:42:13.606Z,7.00
2022-11-24T02:44:17.464Z,6.97
2022-11-24T02:46:18.949Z,6.96
2022-11-24T02:48:20.508Z,7.00
2022-11-24T02:50:21.917Z,6.98
2022-11-24T02:52:23.350Z,6.99
2022-11-24T02:54:24.811Z,7.04
2022-11-24T02:56:27.183Z,7.06
2022-11-24T02:58:28.671Z,7.11
2022-11-24T03:00:30.353Z,7.14
2022-11-24T03:02:32.107Z,7.17
2022-11-24T03:04:33.937Z,7.19
2022-11-24T03:06:35.700Z,7.22
2022-11-24T03:08:37.084Z,7.21
2022-11-24T03:10:39.000Z,7.24
2022-11-24T03:12:40.448Z,7.30
2022-11-24T03:14:41.869Z,7.34
2022-11-24T03:16:43.309Z,7.39
2022-11-24T03:18:44.743Z,7.36
2022-11-24T03:20:46.172Z,7.36
2022-11-24T03:22:47.748Z,7.41
2022-11-24T03:24:49.212Z,7.42
2022-11-24T03:27:15.962Z,7.38
2022-11-24T03:29:17.412Z,7.31
2022-11-24T03:31:18.885Z,7.28
2022-11-24T03:33:20.340Z,7.24
2022-11-24T03:35:22.163Z,7.19
2022-11-24T03:37:23.912Z,7.20
2022-11-24T03:39:25.455Z,7.21
2022-11-24T03:41:26.863Z,7.19
2022-11-24T03:43:28.384Z,7.17
2022-11-24T03:45:45.318Z,7.14
2022-11-24T03:47:51.526Z,7.11
2022-11-24T03:49:52.926Z,7.13
2022-11-24T03:51:54.355Z,7.13
2022-11-24T03:53:55.735Z,7.09
2022-11-24T03:55:57.721Z,7.11
2022-11-24T03:57:59.149Z,7.14
2022-11-24T04:00:00.533Z,7.15
2022-11-24T04:02:02.057Z,7.16
2022-11-24T04:04:06.006Z,7.16
2022-11-24T04:06:07.418Z,7.14
2022-11-24T04:08:09.306Z,7.16
2022-11-24T04:10:10.785Z,7.12
2022-11-24T04:12:31.124Z,7.03
2022-11-24T04:14:32.940Z,7.00
2022-11-24T04:16:34.643Z,7.01
2022-11-24T04:18:36.034Z,7.02
2022-11-24T04:20:37.533Z,7.04
2022-11-24T04:22:39.709Z,7.12
2022-11-24T04:24:41.150Z,7.15
2022-11-24T04:26:42.535Z,7.20
2022-11-24T04:28:43.891Z,7.24
2022-11-24T04:30:45.482Z,7.24
2022-11-24T04:32:47.286Z,7.26
2022-11-24T04:34:48.653Z,7.26
2022-11-24T04:36:49.993Z,7.27
2022-11-24T04:39:23.941Z,7.30
2022-11-24T04:41:15.187Z,7.36
2022-11-24T04:43:18.607Z,7.37
2022-11-24T04:45:19.970Z,7.42
2022-11-24T04:47:24.281Z,7.46
2022-11-24T04:49:25.627Z,7.48
2022-11-24T04:51:27.239Z,7.47
2022-11-24T04:53:28.593Z,7.50
2022-11-24T04:55:29.983Z,7.49
2022-11-24T04:57:31.355Z,7.50
2022-11-24T04:59:32.778Z,7.51
2022-11-24T05:01:34.298Z,7.54
2022-11-24T05:03:36.764Z,7.54
2022-11-24T05:05:38.119Z,7.55
2022-11-24T05:07:39.705Z,7.55
2022-11-24T05:10:00.004Z,7.54
2022-11-24T05:12:01.418Z,7.55
2022-11-24T05:14:02.889Z,7.55
2022-11-24T05:16:04.712Z,7.54
2022-11-24T05:18:08.373Z,7.53
2022-11-24T05:20:09.892Z,7.55
2022-11-24T05:22:11.243Z,7.55
2022-11-24T05:24:12.707Z,7.56
2022-11-24T05:26:14.314Z,7.56
2022-11-24T05:28:16.120Z,7.56
2022-11-24T05:30:17.562Z,7.58
2022-11-24T05:32:18.995Z,7.57
2022-11-24T05:34:20.345Z,7.56
2022-11-24T05:36:40.194Z,7.59
2022-11-24T05:38:41.720Z,7.57
2022-11-24T05:40:43.382Z,7.56
2022-11-24T05:42:47.843Z,7.58
2022-11-24T05:44:49.687Z,7.59
2022-11-24T05:46:51.971Z,7.59
2022-11-24T05:48:53.408Z,7.59
2022-11-24T05:50:58.341Z,7.60
2022-11-24T05:53:08.175Z,7.59
2022-11-24T05:55:10.802Z,7.62
2022-11-24T05:57:13.081Z,7.63
2022-11-24T05:59:14.411Z,7.62
2022-11-24T06:01:15.773Z,7.59
2022-11-24T06:03:17.199Z,7.60
2022-11-24T06:05:18.625Z,7.58
2022-11-24T06:07:20.115Z,7.56
2022-11-24T06:09:21.544Z,7.60
2022-11-24T06:11:22.971Z,7.59
2022-11-24T06:13:24.349Z,7.57
2022-11-24T06:15:26.001Z,7.57
2022-11-24T06:17:27.872Z,7.61
2022-11-24T06:19:29.232Z,7.59
2022-11-24T06:21:30.846Z,7.61
2022-11-24T06:23:32.491Z,7.60
2022-11-24T06:25:33.885Z,7.59
2022-11-24T06:27:35.817Z,7.59
2022-11-24T06:29:37.176Z,7.63
2022-11-24T06:31:40.374Z,7.65
2022-11-24T06:33:41.922Z,7.63
2022-11-24T06:35:43.282Z,7.63
2022-11-24T06:37:45.830Z,7.64
2022-11-24T06:39:47.253Z,7.64
2022-11-24T06:41:52.397Z,7.64
2022-11-24T06:43:54.068Z,7.66
2022-11-24T06:45:56.320Z,7.68
2022-11-24T06:47:57.735Z,7.69
2022-11-24T06:49:59.449Z,7.69
2022-11-24T06:52:00.838Z,7.69
2022-11-24T06:54:02.365Z,7.67
2022-11-24T06:56:15.215Z,7.71
2022-11-24T06:58:17.445Z,7.73
2022-11-24T07:00:19.152Z,7.72
2022-11-24T07:02:20.552Z,7.71
2022-11-24T07:04:21.921Z,7.66
2022-11-24T07:06:25.208Z,7.67
2022-11-24T07:08:28.190Z,7.64
2022-11-24T07:10:29.621Z,7.66
2022-11-24T07:12:35.063Z,7.70
2022-11-24T07:14:36.820Z,7.73
2022-11-24T07:16:38.983Z,7.70
2022-11-24T07:18:40.498Z,7.70
2022-11-24T07:20:41.892Z,7.74
2022-11-24T07:22:43.235Z,7.80
2022-11-24T07:24:44.578Z,7.76
2022-11-24T07:26:45.965Z,7.76
2022-11-24T07:28:47.674Z,7.79
2022-11-24T07:30:49.108Z,7.77
2022-11-24T07:32:50.644Z,7.79
2022-11-24T07:34:52.000Z,7.78
2022-11-24T07:36:53.444Z,7.78
2022-11-24T07:38:54.857Z,7.79
2022-11-24T07:41:03.667Z,7.82
2022-11-24T07:43:05.062Z,7.86
2022-11-24T07:45:07.000Z,7.80
2022-11-24T07:47:08.367Z,7.79
2022-11-24T07:49:09.711Z,7.76
2022-11-24T07:51:11.169Z,7.76
2022-11-24T07:53:12.538Z,7.79
2022-11-24T07:55:14.109Z,7.84
2022-11-24T07:57:15.645Z,7.85
2022-11-24T07:59:17.011Z,7.87
2022-11-24T08:01:18.840Z,7.91
2022-11-24T08:03:20.346Z,7.90
2022-11-24T08:05:21.781Z,7.90
2022-11-24T08:07:23.409Z,7.96
2022-11-24T08:09:24.799Z,7.98
2022-11-24T08:11:26.342Z,7.98
2022-11-24T08:13:27.695Z,7.99
2022-11-24T08:15:29.069Z,7.97
2022-11-24T08:17:30.524Z,8.01
2022-11-24T08:19:32.346Z,8.02
2022-11-24T08:21:33.751Z,8.04
2022-11-24T08:23:35.226Z,8.06
2022-11-24T08:25:36.965Z,8.07
2022-11-24T08:27:40.006Z,8.05
2022-11-24T08:29:42.092Z,8.04
2022-11-24T08:31:43.634Z,8.08
2022-11-24T08:33:45.088Z,8.10
2022-11-24T08:35:46.498Z,8.14
2022-11-24T08:37:47.886Z,8.13
2022-11-24T08:39:49.262Z,8.15
2022-11-24T08:41:50.659Z,8.16
2022-11-24T08:43:52.097Z,8.16
2022-11-24T08:45:53.748Z,8.18
2022-11-24T08:47:56.558Z,8.20
2022-11-24T08:49:58.000Z,8.21
2022-11-24T08:51:59.427Z,8.23
2022-11-24T08:54:01.955Z,8.25
2022-11-24T08:56:04.143Z,8.24
2022-11-24T08:58:05.496Z,8.29
2022-11-24T09:00:07.589Z,8.31
2022-11-24T09:02:13.164Z,8.29
2022-11-24T09:04:40.563Z,8.31
2022-11-24T09:06:41.994Z,8.32
2022-11-24T09:08:43.350Z,8.36
2022-11-24T09:10:44.726Z,8.34
2022-11-24T09:12:47.074Z,8.33
2022-11-24T09:14:48.451Z,8.37
2022-11-24T09:16:49.893Z,8.48
2022-11-24T09:18:59.907Z,8.53
2022-11-24T09:21:08.505Z,8.47
2022-11-24T09:23:09.881Z,8.48
2022-11-24T09:25:11.269Z,8.43
2022-11-24T09:27:12.670Z,8.38
2022-11-24T09:29:14.294Z,8.35
2022-11-24T09:31:18.782Z,8.33
2022-11-24T09:33:20.181Z,8.31
2022-11-24T09:35:21.592Z,8.37
2022-11-24T09:37:25.899Z,8.32
2022-11-24T09:39:29.524Z,8.19
2022-11-24T09:41:45.944Z,8.19
2022-11-24T09:44:08.634Z,8.29
2022-11-24T09:46:47.273Z,8.37
2022-11-24T09:48:54.829Z,8.37
2022-11-24T09:51:01.321Z,8.48
2022-11-24T09:53:17.012Z,8.48
2022-11-24T09:55:29.284Z,8.51
2022-11-24T09:57:37.746Z,8.51
2022-11-24T09:59:41.613Z,8.50
2022-11-24T10:01:45.173Z,8.51
2022-11-24T10:03:51.311Z,8.51
2022-11-24T10:05:53.344Z,8.48
2022-11-24T10:08:21.194Z,8.56
2022-11-24T10:10:48.569Z,8.62
2022-11-24T10:12:55.452Z,8.72
2022-11-24T10:15:15.747Z,8.76
2022-11-24T10:18:16.408Z,8.80
2022-11-24T10:20:27.132Z,8.87
2022-11-24T10:23:03.675Z,8.76
2022-11-24T10:25:30.626Z,8.74
2022-11-24T10:27:40.062Z,8.72
2022-11-24T10:29:42.977Z,8.78
2022-11-24T10:31:45.907Z,8.86
2022-11-24T10:33:48.027Z,8.83
2022-11-24T10:35:52.619Z,8.93
2022-11-24T10:38:02.145Z,8.92
2022-11-24T10:40:26.899Z,8.87
2022-11-24T10:42:38.536Z,8.92
2022-11-24T10:44:41.939Z,8.96
2022-11-24T10:46:43.667Z,8.90
2022-11-24T10:48:52.981Z,8.94
2022-11-24T10:51:24.522Z,8.96
2022-11-24T10:53:30.125Z,8.93
2022-11-24T10:55:54.867Z,8.98
2022-11-24T10:58:15.131Z,8.93
2022-11-24T11:00:19.709Z,8.98
2022-11-24T11:02:37.320Z,8.96
2022-11-24T11:04:38.741Z,9.03
2022-11-24T11:06:40.460Z,9.03
2022-11-24T11:08:41.858Z,9.00
2022-11-24T11:10:44.849Z,9.07
2022-11-24T11:12:46.581Z,9.18
2022-11-24T11:14:48.369Z,9.19
2022-11-24T11:16:53.268Z,9.25
2022-11-24T11:18:54.816Z,9.31
2022-11-24T11:20:58.140Z,9.42
2022-11-24T11:23:13.197Z,9.48
2022-11-24T11:25:18.626Z,9.45
2022-11-24T11:27:23.474Z,9.41
2022-11-24T11:34:41.632Z,9.72
2022-11-24T11:36:49.298Z,9.75
2022-11-24T11:38:50.747Z,9.88
2022-11-24T11:40:52.349Z,9.85
2022-11-24T11:43:06.762Z,9.97
2022-11-24T11:45:16.247Z,9.98
2022-11-24T11:47:22.563Z,10.06
2022-11-24T11:49:24.464Z,9.95
2022-11-24T11:51:32.047Z,10.05
2022-11-24T11:53:46.364Z,10.13
2022-11-24T11:56:17.043Z,10.15
2022-11-24T11:58:44.813Z,10.14
2022-11-24T12:01:15.267Z,10.08
2022-11-24T12:03:26.616Z,10.01
2022-11-24T12:05:34.749Z,9.95
2022-11-24T12:07:53.783Z,9.80
2022-11-24T12:10:04.080Z,9.77
2022-11-24T12:12:45.149Z,9.87
2022-11-24T12:15:34.120Z,9.92
2022-11-24T12:17:46.861Z,9.99
2022-11-24T12:19:57.391Z,9.94
2022-11-24T12:22:17.526Z,9.95
2022-11-24T12:24:35.110Z,10.07
2022-11-24T12:26:48.451Z,10.23
2022-11-24T12:29:04.859Z,10.19
2022-11-24T12:31:08.453Z,10.11
2022-11-24T12:33:30.123Z,10.09
2022-11-24T12:35:46.164Z,10.10
2022-11-24T12:38:09.168Z,10.15
2022-11-24T12:40:40.895Z,9.86
2022-11-24T12:43:16.626Z,9.91
2022-11-24T12:45:28.330Z,9.93
2022-11-24T12:47:56.207Z,10.01
2022-11-24T12:50:02.723Z,10.16
2022-11-24T12:52:23.173Z,10.23
2022-11-24T12:54:25.644Z,10.08
2022-11-24T12:56:38.085Z,9.96
2022-11-24T12:58:50.601Z,10.01
2022-11-24T13:01:18.435Z,9.84
2022-11-24T13:03:43.443Z,9.80
2022-11-24T13:06:00.772Z,9.66
2022-11-24T13:08:04.444Z,9.74
2022-11-24T13:10:53.620Z,9.77
2022-11-24T13:13:37.056Z,9.88
2022-11-24T13:18:46.647Z,9.99
2022-11-24T13:20:48.161Z,10.00
2022-11-24T13:23:03.842Z,10.03
2022-11-24T13:25:46.356Z,10.04
2022-11-24T13:27:53.496Z,10.09
2022-11-24T13:29:55.270Z,10.10
2022-11-24T13:32:02.322Z,10.09
2022-11-24T13:34:38.624Z,10.09
2022-11-24T13:36:53.123Z,10.14
2022-11-24T13:38:54.651Z,10.20
2022-11-24T13:41:13.386Z,10.30
2022-11-24T13:43:17.388Z,10.25
2022-11-24T13:45:44.917Z,10.30
2022-11-24T13:47:46.852Z,10.27
2022-11-24T13:49:50.103Z,10.25
2022-11-24T13:52:35.992Z,10.14
2022-11-24T13:54:41.457Z,10.08
2022-11-24T13:56:42.917Z,10.06
2022-11-24T13:58:57.867Z,10.03
2022-11-24T14:01:02.064Z,9.97
2022-11-24T14:03:06.693Z,9.99
2022-11-24T14:05:14.130Z,9.98
2022-11-24T14:07:16.785Z,9.87
2022-11-24T14:09:35.141Z,9.86
2022-11-24T14:11:36.773Z,9.83
2022-11-24T14:13:38.221Z,9.85
2022-11-24T14:15:39.820Z,9.83
2022-11-24T14:17:41.438Z,9.81
2022-11-24T14:19:48.132Z,9.79
2022-11-24T14:21:49.624Z,9.71
2022-11-24T14:24:03.343Z,9.69
2022-11-24T14:26:04.829Z,9.70
2022-11-24T14:28:22.291Z,9.61
2022-11-24T14:30:25.176Z,9.61
2022-11-24T14:32:27.458Z,9.60
2022-11-24T14:34:35.672Z,9.53
2022-11-24T14:36:38.235Z,9.49
2022-11-24T14:38:39.624Z,9.51
2022-11-24T14:40:50.582Z,9.47
2022-11-24T14:42:52.004Z,9.42
2022-11-24T14:44:59.374Z,9.42
2022-11-24T14:47:06.896Z,9.42
2022-11-24T14:49:08.994Z,9.37
2022-11-24T14:51:10.335Z,9.29
2022-11-24T14:53:15.336Z,9.18
2022-11-24T14:55:29.308Z,9.12
2022-11-24T14:57:36.242Z,9.09
2022-11-24T14:59:38.202Z,9.02
2022-11-24T15:01:39.837Z,8.92
2022-11-24T15:03:41.299Z,8.80
2022-11-24T15:05:55.691Z,8.71
2022-11-24T15:08:02.934Z,8.57
2022-11-24T15:10:06.886Z,8.64
2022-11-24T15:12:19.595Z,8.51
2022-11-24T15:14:44.057Z,8.41
2022-11-24T15:16:45.617Z,8.31
2022-11-24T15:18:48.924Z,8.22
2022-11-24T15:20:50.357Z,8.14
2022-11-24T15:23:23.741Z,8.07
2022-11-24T15:25:33.887Z,7.90
2022-11-24T15:27:35.250Z,7.89
2022-11-24T15:29:36.621Z,7.84
2022-11-24T15:31:45.135Z,7.76
2022-11-24T15:33:49.217Z,7.69
2022-11-24T15:35:50.612Z,7.60
2022-11-24T15:37:52.307Z,7.54
2022-11-24T15:39:53.651Z,7.49
2022-11-24T15:41:55.006Z,7.41
2022-11-24T15:43:59.268Z,7.36
2022-11-24T15:46:01.963Z,7.35
2022-11-24T15:48:03.400Z,7.26
2022-11-24T15:50:05.447Z,7.23
2022-11-24T15:52:07.012Z,7.18
2022-11-24T15:54:13.575Z,7.12
2022-11-24T15:56:23.232Z,7.11
2022-11-24T15:58:25.040Z,7.05
2022-11-24T16:00:26.453Z,6.99
2022-11-24T16:02:28.572Z,6.96
2022-11-24T16:04:30.115Z,6.93
2022-11-24T16:06:31.720Z,6.88
2022-11-24T16:08:33.153Z,6.84
2022-11-24T16:10:36.482Z,6.80
2022-11-24T16:12:37.878Z,6.79
2022-11-24T16:14:39.489Z,6.73
2022-11-24T16:16:41.360Z,6.69
2022-11-24T16:18:44.988Z,6.65
2022-11-24T16:20:46.413Z,6.59
2022-11-24T16:22:48.028Z,6.56
2022-11-24T16:24:49.453Z,6.53
2022-11-24T16:26:50.857Z,6.53
2022-11-24T16:28:52.416Z,6.49
2022-11-24T16:30:53.762Z,6.46
2022-11-24T16:32:55.269Z,6.41
2022-11-24T16:34:56.869Z,6.37
2022-11-24T16:36:58.409Z,6.35
2022-11-24T16:39:00.336Z,6.27
2022-11-24T16:43:28.964Z,6.26
2022-11-24T16:45:30.384Z,6.24
2022-11-24T16:47:31.870Z,6.21
2022-11-24T16:49:33.268Z,6.20
2022-11-24T16:51:35.387Z,6.20
2022-11-24T16:53:37.408Z,6.19
2022-11-24T16:55:38.748Z,6.14
2022-11-24T16:57:40.130Z,6.14
2022-11-24T16:59:43.267Z,6.10
2022-11-24T17:01:46.592Z,6.07
2022-11-24T17:03:48.281Z,6.05
2022-11-24T17:06:02.214Z,6.07
2022-11-24T17:08:03.634Z,6.04
2022-11-24T17:10:06.839Z,5.97
2022-11-24T17:12:08.284Z,5.98
2022-11-24T17:14:10.689Z,5.98
2022-11-24T17:16:15.554Z,5.94
2022-11-24T17:18:24.373Z,5.89
2022-11-24T17:20:26.510Z,5.92
2022-11-24T17:22:27.925Z,5.91
2022-11-24T17:24:29.389Z,5.87
2022-11-24T17:26:31.846Z,5.88
2022-11-24T17:28:34.479Z,5.92
2022-11-24T17:30:36.893Z,5.95
2022-11-24T17:32:38.305Z,6.00
2022-11-24T17:34:39.716Z,6.09
2022-11-24T17:36:41.933Z,6.20
2022-11-24T17:38:43.397Z,6.18
2022-11-24T17:40:48.227Z,6.15
2022-11-24T17:42:49.653Z,6.18
2022-11-24T17:45:16.287Z,6.24
2022-11-24T17:47:17.985Z,6.23
2022-11-24T17:49:21.029Z,6.24
2022-11-24T17:51:24.519Z,6.28
2022-11-24T17:53:26.517Z,6.30
2022-11-24T17:55:27.930Z,6.25
2022-11-24T17:57:29.419Z,6.24
2022-11-24T17:59:30.786Z,6.22
2022-11-24T18:01:33.058Z,6.21
2022-11-24T18:03:34.786Z,6.21
2022-11-24T18:05:36.844Z,6.17
2022-11-24T18:07:38.294Z,6.18
2022-11-24T18:09:39.674Z,6.20
2022-11-24T18:11:41.057Z,6.16
2022-11-24T18:14:01.028Z,6.17
2022-11-24T18:16:05.373Z,6.29
2022-11-24T18:18:06.785Z,6.34
2022-11-24T18:20:08.593Z,6.31
2022-11-24T18:22:10.028Z,6.28
2022-11-24T18:24:12.888Z,6.24
2022-11-24T18:26:15.905Z,6.22
2022-11-24T18:28:17.273Z,6.21
2022-11-24T18:30:18.656Z,6.18
2022-11-24T18:32:20.083Z,6.22
2022-11-24T18:34:24.585Z,6.25
2022-11-24T18:36:30.388Z,6.22
2022-11-24T18:38:32.684Z,6.20
2022-11-24T18:40:38.688Z,6.17
2022-11-24T18:42:40.108Z,6.17
2022-11-24T18:44:42.316Z,6.19
2022-11-24T18:46:43.758Z,6.16
2022-11-24T18:48:45.735Z,6.18
2022-11-24T18:50:51.970Z,6.15
2022-11-24T18:52:53.395Z,6.13
2022-11-24T18:54:54.801Z,6.15
2022-11-24T18:57:00.292Z,6.18
2022-11-24T18:59:04.397Z,6.20
2022-11-24T19:01:17.335Z,6.16
2022-11-24T19:03:18.778Z,6.13
2022-11-24T19:05:20.493Z,6.15
2022-11-24T19:07:22.092Z,6.24
2022-11-24T19:09:25.359Z,6.21
2022-11-24T19:11:29.423Z,6.20
2022-11-24T19:13:30.796Z,6.12
2022-11-24T19:15:35.361Z,6.19
2022-11-24T19:17:36.757Z,6.27
2022-11-24T19:19:39.600Z,6.20
2022-11-24T19:21:41.263Z,6.21
2022-11-24T19:23:42.668Z,6.18
2022-11-24T19:25:44.685Z,6.13
2022-11-24T19:27:46.050Z,6.10
2022-11-24T19:29:47.974Z,6.10
2022-11-24T19:31:49.433Z,6.12
2022-11-24T19:33:56.504Z,6.06
2022-11-24T19:36:05.370Z,6.02
2022-11-24T19:38:06.763Z,6.02
2022-11-24T19:40:08.981Z,6.02
2022-11-24T19:42:10.329Z,6.06
2022-11-24T19:44:12.344Z,5.98
2022-11-24T19:46:18.333Z,5.96
2022-11-24T19:48:19.870Z,6.00
2022-11-24T19:50:21.300Z,5.91
2022-11-24T19:52:23.271Z,5.90
2022-11-24T19:54:24.649Z,5.82
2022-11-24T19:56:28.745Z,5.86
2022-11-24T19:58:30.305Z,5.84
2022-11-24T20:00:32.201Z,5.80
2022-11-24T20:02:33.830Z,5.79
2022-11-24T20:04:38.284Z,5.77
2022-11-24T20:06:43.239Z,5.76
2022-11-24T20:08:45.299Z,5.74
2022-11-24T20:10:46.639Z,5.76
2022-11-24T20:12:48.016Z,5.69
2022-11-24T20:14:49.434Z,5.68
2022-11-24T20:16:50.857Z,5.66
2022-11-24T20:18:54.279Z,5.60
2022-11-24T20:21:01.730Z,5.57
2022-11-24T20:23:03.380Z,5.52
2022-11-24T20:25:05.105Z,5.54
2022-11-24T20:27:06.762Z,5.58
2022-11-24T20:29:11.954Z,5.59
2022-11-24T20:31:15.923Z,5.57
2022-11-24T20:33:17.411Z,5.53
2022-11-24T20:35:18.906Z,5.51
2022-11-24T20:37:20.292Z,5.50
2022-11-24T20:39:25.360Z,5.47
2022-11-24T20:41:29.820Z,5.41
2022-11-24T20:43:31.972Z,5.43
2022-11-24T20:45:36.623Z,5.51
2022-11-24T20:47:38.027Z,5.46
2022-11-24T20:49:39.491Z,5.47
2022-11-24T20:51:47.362Z,5.44
2022-11-24T20:53:50.327Z,5.43
2022-11-24T20:55:51.675Z,5.41
2022-11-24T20:57:53.024Z,5.37
2022-11-24T20:59:54.408Z,5.34
2022-11-24T21:01:55.905Z,5.37
2022-11-24T21:03:59.358Z,5.41
2022-11-24T21:06:01.035Z,5.37
2022-11-24T21:08:02.438Z,5.41
2022-11-24T21:10:04.169Z,5.39
2022-11-24T21:12:05.788Z,5.35
2022-11-24T21:14:08.253Z,5.31
2022-11-24T21:16:37.394Z,5.34
2022-11-24T21:18:38.863Z,5.34
2022-11-24T21:20:40.563Z,5.41
2022-11-24T21:22:41.922Z,5.55
2022-11-24T21:24:43.305Z,5.48
2022-11-24T21:26:51.623Z,5.44
2022-11-24T21:28:52.958Z,5.51
2022-11-24T21:30:54.857Z,5.51
2022-11-24T21:32:56.224Z,5.48
2022-11-24T21:34:57.680Z,5.49
2022-11-24T21:36:59.036Z,5.40
2022-11-24T21:39:01.773Z,5.38
2022-11-24T21:41:05.787Z,5.43
2022-11-24T21:43:07.150Z,5.41
2022-11-24T21:45:11.463Z,5.45
2022-11-24T21:47:12.930Z,5.38
2022-11-24T21:49:14.330Z,5.45
2022-11-24T21:51:17.860Z,5.48
2022-11-24T21:53:19.278Z,5.43
2022-11-24T21:55:20.610Z,5.42
2022-11-24T21:57:23.064Z,5.38
2022-11-24T21:59:24.544Z,5.33
2022-11-24T22:01:28.091Z,5.31
2022-11-24T22:03:29.645Z,5.27
2022-11-24T22:05:31.011Z,5.25
2022-11-24T22:07:32.685Z,5.23
2022-11-24T22:09:34.455Z,5.19
2022-11-24T22:11:35.810Z,5.18
2022-11-24T22:13:37.406Z,5.26
2022-11-24T22:15:38.804Z,5.25
2022-11-24T22:17:41.270Z,5.23
2022-11-24T22:19:42.624Z,5.23
2022-11-24T22:21:44.801Z,5.19
2022-11-24T22:23:46.311Z,5.16
2022-11-24T22:25:47.639Z,5.19
2022-11-24T22:27:49.997Z,5.16
2022-11-24T22:29:54.253Z,5.11
2022-11-24T22:31:55.816Z,5.14
2022-11-24T22:33:58.488Z,5.13
2022-11-24T22:36:00.936Z,5.10
2022-11-24T22:38:02.335Z,5.09
2022-11-24T22:40:03.977Z,5.10
2022-11-24T22:42:07.281Z,5.10
2022-11-24T22:44:08.741Z,5.06
2022-11-24T22:46:21.690Z,5.04
2022-11-24T22:48:23.244Z,5.03
2022-11-24T22:50:24.606Z,5.02
2022-11-24T22:52:25.960Z,5.01
2022-11-24T22:54:27.330Z,5.03
2022-11-24T22:56:30.273Z,5.02
2022-11-24T22:58:32.843Z,5.07
2022-11-24T23:00:34.230Z,5.05
2022-11-24T23:02:35.664Z,5.02
2022-11-24T23:04:37.488Z,5.04
2022-11-24T23:06:39.027Z,5.03
2022-11-24T23:08:40.472Z,4.99
2022-11-24T23:10:41.819Z,4.95
2022-11-24T23:12:43.181Z,5.02
2022-11-24T23:14:44.550Z,4.96
2022-11-24T23:16:45.954Z,5.02
2022-11-24T23:18:52.402Z,5.02
2022-11-24T23:20:55.331Z,5.00
2022-11-24T23:22:57.118Z,5.11
2022-11-24T23:24:58.474Z,5.13
2022-11-24T23:26:59.840Z,5.08
2022-11-24T23:29:01.564Z,5.09
2022-11-24T23:33:35.258Z,5.14
2022-11-24T23:35:36.587Z,5.22
2022-11-24T23:37:59.707Z,5.23
2022-11-24T23:39:59.336Z,5.29
2022-11-24T23:42:00.747Z,5.29
2022-11-24T23:44:02.202Z,5.30
2022-11-24T23:46:04.787Z,5.27
2022-11-24T23:48:08.672Z,5.29
2022-11-24T23:50:10.219Z,5.33
2022-11-24T23:52:11.645Z,5.32
2022-11-24T23:54:13.095Z,5.38
2022-11-24T23:56:17.656Z,5.35
2022-11-24T23:58:19.018Z,5.45
